createdAt,value
2022-11-24T00:01:29.844Z,2.40
2022-11-24T00:04:01.965Z,1.90
2022-11-24T00:06:39.361Z,1.97
2022-11-24T00:09:10.801Z,2.90
2022-11-24T00:11:39.322Z,2.30
2022-11-24T00:14:09.514Z,1.67
2022-11-24T00:16:44.331Z,2.40
2022-11-24T00:19:19.443Z,1.93
2022-11-24T00:21:48.311Z,2.47
2022-11-24T00:24:16.900Z,1.70
2022-11-24T00:26:51.458Z,2.00
2022-11-24T00:29:28.365Z,2.33
2022-11-24T00:31:57.678Z,1.93
2022-11-24T00:34:32.715Z,2.00
2022-11-24T00:37:09.592Z,2.53
2022-11-24T00:39:38.051Z,2.30
2022-11-24T00:42:06.456Z,2.70
2022-11-24T00:44:39.789Z,2.27
2022-11-24T00:47:09.606Z,2.17
2022-11-24T00:49:46.809Z,2.53
2022-11-24T00:52:15.669Z,2.53
2022-11-24T00:54:44.317Z,2.43
2022-11-24T00:57:16.538Z,2.40
2022-11-24T00:59:44.967Z,2.57
2022-11-24T01:02:13.596Z,3.17
2022-11-24T01:04:49.285Z,2.40
2022-11-24T01:07:21.648Z,2.00
2022-11-24T01:09:55.588Z,2.00
2022-11-24T01:12:27.583Z,2.33
2022-11-24T01:14:59.357Z,2.03
2022-11-24T01:17:29.012Z,3.03
2022-11-24T01:20:05.513Z,2.20
2022-11-24T01:22:35.191Z,2.23
2022-11-24T01:25:08.188Z,2.27
2022-11-24T01:27:56.608Z,3.23
2022-11-24T01:30:30.762Z,2.27
2022-11-24T01:33:03.807Z,2.23
2022-11-24T01:35:33.668Z,2.57
2022-11-24T01:38:06.721Z,2.93
2022-11-24T01:40:37.854Z,2.67
2022-11-24T01:43:17.142Z,2.70
2022-11-24T01:45:58.908Z,2.07
2022-11-24T01:48:34.140Z,1.83
2022-11-24T01:51:08.493Z,2.10
2022-11-24T01:53:37.536Z,1.93
2022-11-24T01:56:20.989Z,2.50
2022-11-24T01:58:49.317Z,2.23
2022-11-24T02:01:19.312Z,2.27
2022-11-24T02:03:47.877Z,2.53
2022-11-24T02:06:19.998Z,2.40
2022-11-24T02:08:51.668Z,2.27
2022-11-24T02:11:20.242Z,1.67
2022-11-24T02:13:48.965Z,2.57
2022-11-24T02:16:20.771Z,2.20
2022-11-24T02:18:49.419Z,1.87
2022-11-24T02:21:19.572Z,2.87
2022-11-24T02:23:56.249Z,2.00
2022-11-24T02:26:56.590Z,1.37
2022-11-24T02:29:28.252Z,2.10
2022-11-24T02:31:59.228Z,2.00
2022-11-24T02:34:27.623Z,1.70
2022-11-24T02:37:01.199Z,2.07
2022-11-24T02:39:30.706Z,2.17
2022-11-24T02:42:04.613Z,2.63
2022-11-24T02:44:37.019Z,2.60
2022-11-24T02:47:12.703Z,2.13
2022-11-24T02:49:46.380Z,2.60
2022-11-24T02:52:15.016Z,1.50
2022-11-24T02:54:46.512Z,2.00
2022-11-24T02:57:32.565Z,1.93
2022-11-24T03:00:02.692Z,2.57
2022-11-24T03:02:31.398Z,2.07
2022-11-24T03:04:59.862Z,2.53
2022-11-24T03:07:37.055Z,2.20
2022-11-24T03:10:08.853Z,1.90
2022-11-24T03:12:43.872Z,1.83
2022-11-24T03:15:16.062Z,1.70
2022-11-24T03:17:45.787Z,1.77
2022-11-24T03:20:15.999Z,1.93
2022-11-24T03:22:46.364Z,2.23
2022-11-24T03:25:17.982Z,2.07
2022-11-24T03:28:00.565Z,1.87
2022-11-24T03:30:33.185Z,1.97
2022-11-24T03:33:05.232Z,1.73
2022-11-24T03:35:35.731Z,1.83
2022-11-24T03:38:09.617Z,1.67
2022-11-24T03:40:46.054Z,1.53
2022-11-24T03:43:17.779Z,1.77
2022-11-24T03:45:47.459Z,1.17
2022-11-24T03:48:28.125Z,1.87
2022-11-24T03:51:00.008Z,1.30
2022-11-24T03:53:31.116Z,1.10
2022-11-24T03:56:04.145Z,1.10
2022-11-24T03:58:37.177Z,0.60
2022-11-24T04:01:08.006Z,0.70
2022-11-24T04:03:36.372Z,0.50
2022-11-24T04:06:04.758Z,1.10
2022-11-24T04:08:33.248Z,0.97
2022-11-24T04:11:02.186Z,0.87
2022-11-24T04:13:39.571Z,1.43
2022-11-24T04:16:08.472Z,1.27
2022-11-24T04:18:37.860Z,1.10
2022-11-24T04:21:11.190Z,1.40
2022-11-24T04:23:39.780Z,1.10
2022-11-24T04:26:08.214Z,1.87
2022-11-24T04:28:40.522Z,1.47
2022-11-24T04:31:08.959Z,1.07
2022-11-24T04:33:37.267Z,1.10
2022-11-24T04:36:06.014Z,1.40
2022-11-24T04:39:19.491Z,1.50
2022-11-24T04:41:23.466Z,2.37
2022-11-24T04:43:55.155Z,2.97
2022-11-24T04:46:27.354Z,1.80
2022-11-24T04:48:58.282Z,1.90
2022-11-24T04:51:26.749Z,2.20
2022-11-24T04:53:54.994Z,2.20
2022-11-24T04:56:24.490Z,0.97
2022-11-24T04:58:57.813Z,1.00
2022-11-24T05:01:32.807Z,1.20
2022-11-24T05:04:01.043Z,1.27
2022-11-24T05:06:31.366Z,1.00
2022-11-24T05:09:18.310Z,0.60
2022-11-24T05:11:46.648Z,0.63
2022-11-24T05:14:16.409Z,0.87
2022-11-24T05:16:47.664Z,0.73
2022-11-24T05:19:26.226Z,0.50
2022-11-24T05:21:56.971Z,0.67
2022-11-24T05:24:27.976Z,0.70
2022-11-24T05:27:04.802Z,0.40
2022-11-24T05:29:45.611Z,0.20
2022-11-24T05:32:15.833Z,0.40
2022-11-24T05:34:47.449Z,0.50
2022-11-24T05:37:15.837Z,0.40
2022-11-24T05:39:54.985Z,0.57
2022-11-24T05:42:46.704Z,0.53
2022-11-24T05:45:22.068Z,0.37
2022-11-24T05:47:50.742Z,0.30
2022-11-24T05:50:20.238Z,0.30
2022-11-24T05:52:50.669Z,0.63
2022-11-24T05:55:22.014Z,0.50
2022-11-24T05:57:51.200Z,0.37
2022-11-24T06:00:23.952Z,0.40
2022-11-24T06:02:55.470Z,0.40
2022-11-24T06:05:31.025Z,0.43
2022-11-24T06:08:07.152Z,0.50
2022-11-24T06:10:35.444Z,0.50
2022-11-24T06:13:15.105Z,0.40
2022-11-24T06:16:18.083Z,0.37
2022-11-24T06:19:23.096Z,0.10
2022-11-24T06:22:03.838Z,0.83
2022-11-24T06:28:09.496Z,0.83
2022-11-24T06:34:36.638Z,0.90
2022-11-24T06:40:53.186Z,1.00
2022-11-24T06:43:28.039Z,1.43
2022-11-24T06:46:28.991Z,1.10
2022-11-24T06:52:10.935Z,2.10
2022-11-24T06:54:57.627Z,1.67
2022-11-24T06:57:44.934Z,2.13
2022-11-24T07:00:42.832Z,2.20
2022-11-24T07:03:23.400Z,2.20
2022-11-24T07:06:30.836Z,2.77
2022-11-24T07:09:15.437Z,2.77
2022-11-24T07:12:00.746Z,3.37
2022-11-24T07:15:19.390Z,3.67
2022-11-24T07:18:18.053Z,2.93
2022-11-24T07:21:08.525Z,3.40
2022-11-24T07:24:53.913Z,3.27
2022-11-24T07:30:47.650Z,3.60
2022-11-24T07:33:42.375Z,2.97
2022-11-24T07:36:28.296Z,3.10
2022-11-24T07:42:16.741Z,3.60
2022-11-24T07:45:24.728Z,3.70
2022-11-24T07:47:54.646Z,4.17
2022-11-24T07:50:29.060Z,4.43
2022-11-24T07:53:16.655Z,4.33
2022-11-24T07:56:07.954Z,4.67
2022-11-24T07:58:52.859Z,3.67
2022-11-24T08:01:30.976Z,3.90
2022-11-24T08:04:38.081Z,4.77
2022-11-24T08:12:26.271Z,4.17
2022-11-24T08:26:36.214Z,3.73
2022-11-24T10:28:10.476Z,2.27
2022-11-24T10:30:40.390Z,2.27
2022-11-24T10:33:23.200Z,2.00
2022-11-24T10:35:57.117Z,1.27
2022-11-24T10:38:39.079Z,2.73
2022-11-24T10:41:08.970Z,2.37
2022-11-24T15:10:04.523Z,3.20
2022-11-24T15:12:37.386Z,3.60
2022-11-24T15:15:10.058Z,2.57
